createdAt,value
2019-03-18T00:00:36.931Z,4.40
2019-03-18T00:03:05.754Z,4.40
2019-03-18T00:05:34.486Z,4.40
2019-03-18T00:08:03.200Z,4.40
2019-03-18T00:10:32.790Z,4.40
2019-03-18T00:13:02.499Z,4.40
2019-03-18T00:15:31.194Z,4.40
2019-03-18T00:17:59.974Z,4.40
2019-03-18T00:20:28.716Z,4.30
2019-03-18T00:22:57.744Z,4.30
2019-03-18T00:25:26.726Z,4.30
2019-03-18T00:27:55.450Z,4.20
2019-03-18T00:30:24.118Z,4.10
2019-03-18T00:32:52.829Z,4.10
2019-03-18T00:35:21.501Z,4.00
2019-03-18T00:37:50.370Z,3.90
2019-03-18T00:40:19.298Z,3.80
2019-03-18T00:42:48.077Z,3.70
2019-03-18T00:45:16.956Z,3.60
2019-03-18T00:47:45.753Z,3.60
2019-03-18T00:50:14.584Z,3.50
2019-03-18T00:53:02.530Z,3.50
2019-03-18T00:55:31.217Z,3.50
2019-03-18T00:57:59.887Z,3.50
2019-03-18T01:00:28.671Z,3.50
2019-03-18T01:02:57.442Z,3.50
2019-03-18T01:05:26.132Z,3.50
2019-03-18T01:07:55.079Z,3.50
2019-03-18T01:10:23.735Z,3.60
2019-03-18T01:12:52.702Z,3.60
2019-03-18T01:15:28.079Z,3.60
2019-03-18T01:17:51.814Z,3.70
2019-03-18T01:20:20.748Z,3.70
2019-03-18T01:22:49.466Z,3.70
2019-03-18T01:25:18.172Z,3.70
2019-03-18T01:27:46.839Z,3.70
2019-03-18T01:30:15.680Z,3.70
2019-03-18T01:32:44.343Z,3.60
2019-03-18T01:35:13.104Z,3.60
2019-03-18T01:37:41.743Z,3.70
2019-03-18T01:40:10.903Z,3.70
2019-03-18T01:42:39.605Z,3.60
2019-03-18T01:45:08.587Z,3.70
2019-03-18T01:47:37.278Z,3.70
2019-03-18T01:50:06.460Z,3.70
2019-03-18T01:52:35.379Z,3.70
2019-03-18T01:55:04.399Z,3.70
2019-03-18T01:57:33.111Z,3.70
2019-03-18T02:00:01.845Z,3.70
2019-03-18T02:02:30.529Z,3.70
2019-03-18T02:04:59.217Z,3.70
2019-03-18T02:07:27.993Z,3.60
2019-03-18T02:09:56.651Z,3.60
2019-03-18T02:12:25.355Z,3.60
2019-03-18T02:14:54.008Z,3.60
2019-03-18T02:17:22.754Z,3.60
2019-03-18T02:19:51.436Z,3.60
2019-03-18T02:22:20.097Z,3.60
2019-03-18T02:24:48.808Z,3.60
2019-03-18T02:27:17.509Z,3.60
2019-03-18T02:29:46.545Z,3.60
2019-03-18T02:32:15.204Z,3.60
2019-03-18T02:34:43.898Z,3.50
2019-03-18T02:37:12.602Z,3.50
2019-03-18T02:39:41.336Z,3.50
2019-03-18T02:42:10.283Z,3.50
2019-03-18T02:44:39.288Z,3.50
2019-03-18T02:47:07.967Z,3.50
2019-03-18T02:49:36.699Z,3.50
2019-03-18T02:52:05.362Z,3.40
2019-03-18T02:54:34.086Z,3.40
2019-03-18T02:57:02.856Z,3.40
2019-03-18T02:59:31.608Z,3.40
2019-03-18T03:02:00.286Z,3.30
2019-03-18T03:04:29.006Z,3.40
2019-03-18T03:06:57.754Z,3.30
2019-03-18T03:09:26.707Z,3.40
2019-03-18T03:11:55.445Z,3.40
2019-03-18T03:14:24.183Z,3.50
2019-03-18T03:16:52.919Z,3.50
2019-03-18T03:19:21.615Z,3.50
2019-03-18T03:21:50.296Z,3.50
2019-03-18T03:24:19.070Z,3.50
2019-03-18T03:26:48.003Z,3.50
2019-03-18T03:29:16.751Z,3.50
2019-03-18T03:31:45.504Z,3.50
2019-03-18T03:34:14.602Z,3.40
2019-03-18T03:36:43.434Z,3.30
2019-03-18T03:39:12.099Z,3.30
2019-03-18T03:41:40.809Z,3.40
2019-03-18T03:44:09.544Z,3.40
2019-03-18T03:46:43.624Z,3.40
2019-03-18T03:49:09.290Z,3.50
2019-03-18T03:51:38.001Z,3.40
2019-03-18T03:54:06.677Z,3.40
2019-03-18T03:56:35.466Z,3.40
2019-03-18T03:59:04.169Z,3.40
2019-03-18T04:01:32.955Z,3.30
2019-03-18T04:04:02.114Z,3.40
2019-03-18T04:06:30.841Z,3.30
2019-03-18T04:08:59.518Z,3.30
2019-03-18T04:11:28.207Z,3.40
2019-03-18T04:13:57.285Z,3.40
2019-03-18T04:16:25.987Z,3.30
2019-03-18T04:18:54.667Z,3.40
2019-03-18T04:21:23.357Z,3.40
2019-03-18T04:23:52.289Z,3.30
2019-03-18T04:26:20.980Z,3.40
2019-03-18T04:28:49.648Z,3.30
2019-03-18T04:31:18.392Z,3.40
2019-03-18T04:33:47.056Z,3.40
2019-03-18T04:36:16.452Z,3.40
2019-03-18T04:38:45.543Z,3.40
2019-03-18T04:41:14.251Z,3.50
2019-03-18T04:43:42.955Z,3.50
2019-03-18T04:46:11.972Z,3.50
2019-03-18T04:48:40.736Z,3.60
2019-03-18T04:51:09.430Z,3.70
2019-03-18T04:53:38.188Z,3.70
2019-03-18T04:56:07.108Z,3.80
2019-03-18T04:58:35.948Z,3.80
2019-03-18T05:01:04.680Z,3.80
2019-03-18T05:03:33.328Z,3.80
2019-03-18T05:06:02.008Z,3.90
2019-03-18T05:08:30.939Z,3.90
2019-03-18T05:10:59.726Z,3.90
2019-03-18T05:13:28.467Z,3.90
2019-03-18T05:15:57.489Z,3.90
2019-03-18T05:18:26.444Z,4.00
2019-03-18T05:20:55.181Z,4.00
2019-03-18T05:23:23.883Z,4.00
2019-03-18T05:25:52.688Z,4.10
2019-03-18T05:28:21.418Z,4.10
2019-03-18T05:30:50.365Z,4.10
2019-03-18T05:33:19.063Z,4.10
2019-03-18T05:35:54.072Z,4.10
2019-03-18T05:38:22.734Z,4.20
2019-03-18T05:40:51.849Z,4.20
2019-03-18T05:43:20.834Z,4.20
2019-03-18T05:45:49.627Z,4.20
2019-03-18T05:48:18.315Z,4.20
2019-03-18T05:50:47.352Z,4.20
2019-03-18T05:53:16.139Z,4.20
2019-03-18T05:55:46.704Z,4.20
2019-03-18T05:58:15.418Z,4.20
2019-03-18T06:00:44.092Z,4.30
2019-03-18T06:03:13.159Z,4.20
2019-03-18T06:05:41.817Z,4.20
2019-03-18T06:08:11.708Z,4.20
2019-03-18T06:10:41.021Z,4.20
2019-03-18T06:13:09.716Z,4.20
2019-03-18T06:15:38.509Z,4.20
2019-03-18T06:18:07.215Z,4.20
2019-03-18T06:20:35.891Z,4.20
2019-03-18T06:23:04.907Z,4.20
2019-03-18T06:25:33.632Z,4.20
2019-03-18T06:28:02.299Z,4.20
2019-03-18T06:30:30.996Z,4.20
2019-03-18T06:33:00.069Z,4.20
2019-03-18T06:35:28.795Z,4.20
2019-03-18T06:37:57.498Z,4.20
2019-03-18T06:40:26.211Z,4.20
2019-03-18T06:42:54.894Z,4.30
2019-03-18T06:45:23.591Z,4.20
2019-03-18T06:48:03.797Z,4.30
2019-03-18T06:50:24.704Z,4.30
2019-03-18T06:52:53.653Z,4.30
2019-03-18T06:55:22.348Z,4.30
2019-03-18T06:57:51.148Z,4.30
2019-03-18T07:00:20.116Z,4.40
2019-03-18T07:02:48.805Z,4.30
2019-03-18T07:05:17.795Z,4.40
2019-03-18T07:07:46.449Z,4.40
2019-03-18T07:10:15.480Z,4.40
2019-03-18T07:12:44.150Z,4.40
2019-03-18T07:15:12.883Z,4.40
2019-03-18T07:17:41.571Z,4.50
2019-03-18T07:20:10.615Z,4.60
2019-03-18T07:22:39.567Z,4.70
2019-03-18T07:25:08.394Z,4.90
2019-03-18T07:27:37.162Z,5.10
2019-03-18T07:30:06.291Z,5.40
2019-03-18T07:32:34.994Z,5.50
2019-03-18T07:35:03.887Z,5.30
2019-03-18T07:37:32.573Z,5.30
2019-03-18T07:40:01.232Z,5.20
2019-03-18T07:42:30.343Z,5.10
2019-03-18T07:44:59.019Z,5.20
2019-03-18T07:47:27.754Z,5.40
2019-03-18T07:49:56.492Z,5.90
2019-03-18T07:52:25.814Z,5.90
2019-03-18T07:54:54.475Z,5.90
2019-03-18T07:57:23.178Z,5.90
2019-03-18T07:59:51.887Z,5.90
2019-03-18T08:02:20.708Z,5.80
2019-03-18T08:04:49.660Z,5.60
2019-03-18T08:07:18.456Z,5.60
2019-03-18T08:09:47.154Z,5.60
2019-03-18T08:12:15.842Z,5.60
2019-03-18T08:14:44.756Z,5.50
2019-03-18T08:17:13.737Z,5.50
2019-03-18T08:19:42.668Z,5.50
2019-03-18T08:22:11.356Z,5.50
2019-03-18T08:24:40.028Z,5.50
2019-03-18T08:27:08.863Z,5.50
2019-03-18T08:29:37.617Z,5.60
2019-03-18T08:32:06.598Z,5.70
2019-03-18T08:34:35.326Z,5.90
2019-03-18T08:37:04.011Z,6.20
2019-03-18T08:39:33.243Z,6.30
2019-03-18T08:42:01.957Z,6.30
2019-03-18T08:44:30.945Z,6.50
2019-03-18T08:46:59.754Z,6.80
2019-03-18T08:49:28.738Z,6.70
2019-03-18T08:51:57.925Z,6.70
2019-03-18T08:54:27.384Z,6.70
2019-03-18T08:56:56.355Z,6.60
2019-03-18T08:59:25.209Z,6.40
2019-03-18T09:01:53.927Z,6.40
2019-03-18T09:04:22.614Z,6.30
2019-03-18T09:06:51.294Z,6.30
2019-03-18T09:09:19.999Z,6.40
2019-03-18T09:11:48.662Z,6.30
2019-03-18T09:14:17.434Z,6.30
2019-03-18T09:16:46.148Z,6.40
2019-03-18T09:19:14.847Z,6.40
2019-03-18T09:21:43.693Z,6.40
2019-03-18T09:24:12.723Z,6.30
2019-03-18T09:26:41.443Z,6.30
2019-03-18T09:29:10.389Z,6.40
2019-03-18T09:31:39.376Z,6.60
2019-03-18T09:34:08.083Z,6.50
2019-03-18T09:36:36.772Z,6.50
2019-03-18T09:39:07.628Z,6.60
2019-03-18T09:41:36.662Z,6.60
2019-03-18T09:44:05.624Z,6.90
2019-03-18T09:46:34.299Z,7.20
2019-03-18T09:49:03.034Z,7.80
2019-03-18T09:51:32.049Z,7.90
2019-03-18T09:54:00.826Z,7.70
2019-03-18T09:56:29.686Z,7.50
2019-03-18T09:58:58.792Z,7.50
2019-03-18T10:01:27.490Z,7.70
2019-03-18T10:03:56.299Z,7.50
2019-03-18T10:06:25.044Z,7.40
2019-03-18T10:08:53.758Z,7.30
2019-03-18T10:11:22.442Z,7.10
2019-03-18T10:13:51.147Z,7.00
2019-03-18T10:16:19.884Z,6.90
2019-03-18T10:18:48.635Z,6.90
2019-03-18T10:21:17.330Z,7.20
2019-03-18T10:23:46.384Z,7.20
2019-03-18T10:26:15.162Z,7.10
2019-03-18T10:28:44.124Z,7.20
2019-03-18T10:31:13.146Z,7.30
2019-03-18T10:33:44.736Z,7.40
2019-03-18T10:36:12.536Z,7.50
2019-03-18T10:38:41.301Z,7.40
2019-03-18T10:41:10.001Z,7.40
2019-03-18T10:43:38.946Z,7.40
2019-03-18T10:46:07.943Z,7.40
2019-03-18T10:48:36.879Z,7.70
2019-03-18T10:51:05.971Z,8.70
2019-03-18T10:53:34.699Z,9.10
2019-03-18T10:56:08.072Z,9.40
2019-03-18T10:58:33.915Z,9.20
2019-03-18T11:01:02.690Z,8.80
2019-03-18T11:03:31.418Z,9.00
2019-03-18T11:06:00.137Z,8.90
2019-03-18T11:08:29.121Z,8.80
2019-03-18T11:10:58.010Z,8.40
2019-03-18T11:13:26.980Z,8.60
2019-03-18T11:15:55.730Z,8.30
2019-03-18T11:18:24.540Z,8.10
2019-03-18T11:20:53.584Z,7.90
2019-03-18T11:23:22.336Z,7.70
2019-03-18T11:25:51.007Z,7.70
2019-03-18T11:28:19.733Z,7.40
2019-03-18T11:30:48.770Z,7.10
2019-03-18T11:33:17.491Z,7.70
2019-03-18T11:35:46.463Z,8.60
2019-03-18T11:38:15.153Z,8.30
2019-03-18T11:40:44.561Z,8.30
2019-03-18T11:43:13.276Z,8.90
2019-03-18T11:45:42.259Z,9.60
2019-03-18T11:48:11.243Z,9.90
2019-03-18T11:50:41.475Z,10.20
2019-03-18T11:53:14.483Z,10.00
2019-03-18T11:55:40.945Z,9.80
2019-03-18T11:58:09.847Z,9.60
2019-03-18T12:00:38.541Z,9.60
2019-03-18T12:03:07.260Z,9.70
2019-03-18T12:05:36.257Z,10.00
2019-03-18T12:08:04.990Z,10.50
2019-03-18T12:10:33.768Z,9.70
2019-03-18T12:13:02.553Z,9.80
2019-03-18T12:15:31.229Z,9.70
2019-03-18T12:18:00.044Z,9.90
2019-03-18T12:20:29.001Z,9.70
2019-03-18T12:22:57.791Z,9.60
2019-03-18T12:25:26.496Z,9.60
2019-03-18T12:27:55.246Z,9.60
2019-03-18T12:30:24.088Z,9.40
2019-03-18T12:32:53.319Z,9.60
2019-03-18T12:35:21.999Z,9.70
2019-03-18T12:37:51.254Z,10.00
2019-03-18T12:40:21.521Z,10.00
2019-03-18T12:42:50.335Z,9.40
2019-03-18T12:45:19.311Z,9.40
2019-03-18T12:47:48.340Z,9.50
2019-03-18T12:50:17.175Z,9.30
2019-03-18T12:52:45.864Z,9.10
2019-03-18T12:55:15.341Z,8.50
2019-03-18T12:57:44.492Z,7.90
2019-03-18T13:00:18.887Z,7.70
2019-03-18T13:02:47.628Z,7.70
2019-03-18T13:05:16.402Z,8.20
2019-03-18T13:07:45.159Z,8.50
2019-03-18T13:10:14.985Z,8.60
2019-03-18T13:12:43.968Z,8.10
2019-03-18T13:15:14.098Z,7.90
2019-03-18T13:17:43.984Z,8.20
2019-03-18T13:20:13.283Z,8.60
2019-03-18T13:22:42.662Z,8.70
2019-03-18T13:25:12.136Z,8.90
2019-03-18T13:27:40.912Z,9.00
2019-03-18T13:30:15.140Z,9.00
2019-03-18T13:32:42.499Z,8.90
2019-03-18T13:35:11.324Z,9.00
2019-03-18T13:37:40.111Z,9.10
2019-03-18T13:40:10.050Z,9.00
2019-03-18T13:42:38.781Z,9.20
2019-03-18T13:45:09.836Z,9.30
2019-03-18T13:47:38.611Z,9.30
2019-03-18T13:50:09.255Z,9.10
2019-03-18T13:52:37.983Z,9.20
2019-03-18T13:55:06.983Z,9.10
2019-03-18T13:57:36.311Z,8.80
2019-03-18T14:00:07.831Z,8.40
2019-03-18T14:02:36.529Z,7.90
2019-03-18T14:05:07.089Z,7.30
2019-03-18T14:07:35.823Z,6.60
2019-03-18T14:10:05.156Z,6.10
2019-03-18T14:12:33.921Z,5.90
2019-03-18T14:15:02.675Z,6.30
2019-03-18T14:17:31.471Z,6.80
2019-03-18T14:20:00.806Z,7.20
2019-03-18T14:22:30.052Z,7.30
2019-03-18T14:24:58.777Z,7.30
2019-03-18T14:27:27.727Z,7.40
2019-03-18T14:29:56.445Z,7.50
2019-03-18T14:32:25.159Z,7.60
2019-03-18T14:34:53.954Z,7.60
2019-03-18T14:37:22.700Z,7.80
2019-03-18T14:39:51.775Z,7.80
2019-03-18T14:42:20.493Z,8.10
2019-03-18T14:44:49.185Z,7.90
2019-03-18T14:47:17.839Z,8.00
2019-03-18T14:49:46.591Z,8.30
2019-03-18T14:52:15.301Z,8.50
2019-03-18T14:54:45.733Z,8.50
2019-03-18T14:57:14.518Z,8.40
2019-03-18T14:59:43.229Z,8.40
2019-03-18T15:02:11.926Z,8.40
2019-03-18T15:04:40.620Z,8.40
2019-03-18T15:07:09.395Z,8.30
2019-03-18T15:09:39.653Z,8.10
2019-03-18T15:12:08.639Z,7.90
2019-03-18T15:14:37.425Z,7.90
2019-03-18T15:17:06.139Z,7.80
2019-03-18T15:19:34.971Z,7.80
2019-03-18T15:22:04.572Z,8.00
2019-03-18T15:24:33.427Z,8.00
2019-03-18T15:27:02.366Z,8.10
2019-03-18T15:29:31.194Z,8.50
2019-03-18T15:32:00.032Z,8.50
2019-03-18T15:34:28.732Z,8.30
2019-03-18T15:36:57.578Z,8.30
2019-03-18T15:39:26.639Z,8.30
2019-03-18T15:41:55.734Z,8.30
2019-03-18T15:44:24.588Z,8.20
2019-03-18T15:46:53.401Z,8.10
2019-03-18T15:49:22.688Z,8.00
2019-03-18T15:51:51.577Z,7.80
2019-03-18T15:54:20.631Z,7.60
2019-03-18T15:56:49.617Z,7.50
2019-03-18T15:59:18.601Z,7.50
2019-03-18T16:01:47.860Z,7.40
2019-03-18T16:04:16.554Z,7.40
2019-03-18T16:06:46.072Z,7.20
2019-03-18T16:09:14.777Z,7.10
2019-03-18T16:11:43.932Z,7.10
2019-03-18T16:14:12.966Z,6.90
2019-03-18T16:16:41.819Z,6.80
2019-03-18T16:19:10.693Z,6.70
2019-03-18T16:21:39.500Z,6.70
2019-03-18T16:24:08.582Z,6.50
2019-03-18T16:26:37.599Z,6.30
2019-03-18T16:29:06.274Z,6.20
2019-03-18T16:31:35.976Z,6.10
2019-03-18T16:34:05.121Z,6.10
2019-03-18T16:36:34.119Z,6.00
2019-03-18T16:39:02.959Z,6.00
2019-03-18T16:41:31.718Z,6.00
2019-03-18T16:44:00.436Z,5.90
2019-03-18T16:46:29.231Z,5.90
2019-03-18T16:48:58.005Z,6.00
2019-03-18T16:51:26.808Z,6.00
2019-03-18T16:53:55.527Z,6.00
2019-03-18T16:56:24.212Z,6.00
2019-03-18T16:58:53.641Z,6.00
2019-03-18T17:01:22.475Z,5.90
2019-03-18T17:03:51.141Z,5.90
2019-03-18T17:06:20.207Z,5.90
2019-03-18T17:08:49.218Z,5.80
2019-03-18T17:11:18.061Z,5.80
2019-03-18T17:13:46.743Z,5.70
2019-03-18T17:16:15.454Z,5.70
2019-03-18T17:18:44.556Z,5.60
2019-03-18T17:21:13.275Z,5.60
2019-03-18T17:23:42.400Z,5.60
2019-03-18T17:26:11.150Z,5.70
2019-03-18T17:28:39.852Z,5.70
2019-03-18T17:31:09.530Z,5.60
2019-03-18T17:33:38.489Z,5.80
2019-03-18T17:36:07.200Z,5.80
2019-03-18T17:38:36.260Z,5.80
2019-03-18T17:41:05.037Z,5.80
2019-03-18T17:43:33.694Z,5.50
2019-03-18T17:46:03.609Z,5.50
2019-03-18T17:48:32.332Z,5.30
2019-03-18T17:51:01.321Z,5.10
2019-03-18T17:53:30.008Z,5.00
2019-03-18T17:55:58.727Z,4.80
2019-03-18T17:58:27.439Z,4.60
2019-03-18T18:00:56.312Z,4.50
2019-03-18T18:03:25.052Z,4.40
2019-03-18T18:05:53.841Z,4.40
2019-03-18T18:08:23.509Z,4.30
2019-03-18T18:10:52.454Z,4.30
2019-03-18T18:13:21.291Z,4.40
2019-03-18T18:15:50.242Z,4.50
2019-03-18T18:18:19.211Z,4.60
2019-03-18T18:20:47.943Z,4.70
2019-03-18T18:23:16.643Z,4.80
2019-03-18T18:25:45.326Z,4.90
2019-03-18T18:28:14.309Z,5.00
2019-03-18T18:30:43.105Z,5.00
2019-03-18T18:33:12.146Z,5.00
2019-03-18T18:35:40.840Z,5.10
2019-03-18T18:38:09.909Z,5.10
2019-03-18T18:40:38.591Z,5.20
2019-03-18T18:43:07.453Z,5.20
2019-03-18T18:45:36.209Z,5.20
2019-03-18T18:48:05.411Z,5.30
2019-03-18T18:50:34.127Z,5.30
2019-03-18T18:53:03.313Z,5.30
2019-03-18T18:55:32.025Z,5.30
2019-03-18T18:58:00.731Z,5.30
2019-03-18T19:00:29.407Z,5.40
2019-03-18T19:02:58.154Z,5.40
2019-03-18T19:05:26.928Z,5.40
2019-03-18T19:07:57.549Z,5.40
2019-03-18T19:10:26.771Z,5.40
2019-03-18T19:12:55.760Z,5.40
2019-03-18T19:15:24.463Z,5.40
2019-03-18T19:17:53.256Z,5.40
2019-03-18T19:20:21.935Z,5.50
2019-03-18T19:22:50.831Z,5.50
2019-03-18T19:25:19.852Z,5.40
2019-03-18T19:27:49.607Z,5.40
2019-03-18T19:30:18.564Z,5.40
2019-03-18T19:32:47.447Z,5.40
2019-03-18T19:35:16.328Z,5.40
2019-03-18T19:37:45.424Z,5.30
2019-03-18T19:40:15.312Z,5.30
2019-03-18T19:42:44.040Z,5.20
2019-03-18T19:45:13.401Z,5.20
2019-03-18T19:47:42.337Z,5.20
2019-03-18T19:50:13.800Z,5.10
2019-03-18T19:52:42.723Z,5.10
2019-03-18T19:55:11.636Z,5.10
2019-03-18T19:57:41.221Z,5.10
2019-03-18T20:00:13.422Z,5.10
2019-03-18T20:02:42.400Z,5.10
2019-03-18T20:05:15.305Z,5.10
2019-03-18T20:07:42.041Z,5.00
2019-03-18T20:10:12.158Z,5.00
2019-03-18T20:12:40.945Z,5.00
2019-03-18T20:15:10.963Z,5.00
2019-03-18T20:17:39.749Z,4.90
2019-03-18T20:20:09.956Z,4.90
2019-03-18T20:22:38.946Z,4.80
2019-03-18T20:25:07.791Z,4.70
2019-03-18T20:27:36.436Z,4.70
2019-03-18T20:30:07.197Z,4.60
2019-03-18T20:32:36.254Z,4.50
2019-03-18T20:35:06.173Z,4.40
2019-03-18T20:37:35.312Z,4.40
2019-03-18T20:40:05.250Z,4.40
2019-03-18T20:42:33.968Z,4.30
2019-03-18T20:45:02.670Z,4.30
2019-03-18T20:47:31.313Z,4.20
2019-03-18T20:49:59.985Z,4.20
2019-03-18T20:52:28.686Z,4.20
2019-03-18T20:54:57.619Z,4.20
2019-03-18T20:57:26.308Z,4.10
2019-03-18T20:59:55.084Z,4.10
2019-03-18T21:02:23.850Z,4.10
2019-03-18T21:04:52.520Z,4.10
2019-03-18T21:07:21.219Z,4.10
2019-03-18T21:09:50.921Z,4.10
2019-03-18T21:12:19.672Z,4.10
2019-03-18T21:14:48.356Z,4.30
2019-03-18T21:17:19.839Z,4.30
2019-03-18T21:19:48.789Z,4.40
2019-03-18T21:22:18.932Z,4.40
2019-03-18T21:24:47.692Z,4.40
2019-03-18T21:27:16.363Z,4.30
2019-03-18T21:29:45.052Z,4.30
2019-03-18T21:32:13.799Z,4.30
2019-03-18T21:34:42.486Z,4.20
2019-03-18T21:37:11.142Z,4.20
2019-03-18T21:39:40.104Z,4.10
2019-03-18T21:42:08.807Z,4.20
2019-03-18T21:44:37.483Z,4.10
2019-03-18T21:47:06.195Z,4.10
2019-03-18T21:49:34.876Z,4.00
2019-03-18T21:52:03.551Z,3.90
2019-03-18T21:56:35.677Z,3.90
2019-03-18T21:59:04.425Z,3.90
2019-03-18T22:01:33.107Z,3.90
2019-03-18T22:04:02.050Z,3.90
2019-03-18T22:06:31.532Z,3.80
2019-03-18T22:09:00.236Z,3.80
2019-03-18T22:11:28.915Z,3.80
2019-03-18T22:13:57.586Z,3.90
2019-03-18T22:16:26.655Z,3.80
2019-03-18T22:18:55.322Z,3.80
2019-03-18T22:21:24.251Z,3.80
2019-03-18T22:23:52.920Z,3.80
2019-03-18T22:26:21.912Z,3.90
2019-03-18T22:28:50.594Z,3.90
2019-03-18T22:31:19.558Z,3.90
2019-03-18T22:33:48.676Z,3.90
2019-03-18T22:36:17.471Z,3.90
2019-03-18T22:38:46.454Z,3.90
2019-03-18T22:41:15.123Z,3.90
2019-03-18T22:43:43.804Z,3.90
2019-03-18T22:46:13.239Z,4.00
2019-03-18T22:48:41.929Z,4.00
2019-03-18T22:51:10.631Z,4.00
2019-03-18T22:53:39.321Z,4.10
2019-03-18T22:56:08.005Z,4.10
2019-03-18T22:58:36.721Z,4.10
2019-03-18T23:01:11.077Z,4.10
2019-03-18T23:03:39.771Z,4.20
2019-03-18T23:06:08.583Z,4.20
2019-03-18T23:08:37.253Z,4.20
2019-03-18T23:11:05.994Z,4.30
2019-03-18T23:13:34.679Z,4.30
2019-03-18T23:16:03.384Z,4.30
2019-03-18T23:18:32.615Z,4.30
2019-03-18T23:21:01.294Z,4.30
2019-03-18T23:23:29.962Z,4.30
2019-03-18T23:25:58.611Z,4.30
2019-03-18T23:28:27.287Z,4.40
2019-03-18T23:30:55.967Z,4.40
2019-03-18T23:33:24.691Z,4.40
2019-03-18T23:35:54.544Z,4.40
2019-03-18T23:38:23.488Z,4.40
2019-03-18T23:40:52.387Z,4.40
2019-03-18T23:43:21.080Z,4.40
2019-03-18T23:45:49.817Z,4.40
2019-03-18T23:48:18.616Z,4.40
2019-03-18T23:50:47.603Z,4.40
2019-03-18T23:53:16.580Z,4.40
2019-03-18T23:55:45.279Z,4.40
